Corpus Christi, TX

2:04 AM CST on December 03, 2016 (GMT -0600)
Aransas Cliffs | | Change Station
Active Advisory: Coastal Hazard Statement

Elev 46 ft 27.75 °N, 97.38 °W | Updated 26 seconds ago

Overcast
Overcast
65.8 °F
Feels Like 65.8 °F
N
6.6
Wind Variable Wind from NNE
Gusts 9.2 mph

Today
High -- | Low -- °F
--% Chance of Precip.
Yesterday
High -- | Low -- °F
Precip. -- in
Pressure 29.85 in
Visibility 10.0 miles
Clouds Few 800 ft
Mostly Cloudy 1400 ft
Overcast 6500 ft
Dew Point 63 °F
Humidity 90%
Rainfall 0.00 in
Snow Depth Not available.
7:05 AM 5:34 PM
Waxing Crescent, 13% visible
METAR KCRP 030751Z 05008KT 10SM FEW008 BKN014 OVC065 19/17 A2985 RMK AO2 SLP108 T01890172
Pressure 29.85 in
Visibility 10.0 miles
Clouds Few 800 ft
Mostly Cloudy 1400 ft
Overcast 6500 ft
Dew Point 63 °F
Humidity 90%
Rainfall 0.00 in
Snow Depth Not available.
7:05 AM 5:34 PM
Waxing Crescent, 13% visible
METAR KCRP 030751Z 05008KT 10SM FEW008 BKN014 OVC065 19/17 A2985 RMK AO2 SLP108 T01890172

10-Day Weather Forecast

Almanac

Astronomy

Dec. 03, 2016 Rise Set
Actual Time
Civil Twilight
Nautical Twilight
Astronomical Twilight
Moon
Length of Visible Light
Length of Day
Tomorrow will be .
, % of the Moon is Illuminated

Today's Extremes

State Highs State Lows

Community

WunderPhotos

Upload Photos

1,955,432 photos uploaded!

WunderBlog® & News

Nearby

Air Quality

  Air Quality AQ Index Pollutant
Not available.

Snow Depth

Station Depth Elevation

Earthquake Activity

City Distance Mag. Time & Date
Minimum magnitude displayed is 2.5.

Coastal Water Temperatures

Place Temperature

Stations

Nearby Weather Stations

Station Location Temp. Windchill Dew Point Humidity Wind Precip. Elev Updated Type
                   

Watches & Warnings

Coastal Hazard Statement
Issued: 2:02 AM CST Dec. 3, 2016 – National Weather Service

... High rip current risk remains in effect until noon CST today...
... Coastal Flood Advisory will expire at 2 am CST early this
morning...


* timing... through noon for the high rip current risk.

* Impacts... frequent life threatening rip currents will continue
through Saturday morning. The surf is dangerous for all levels
of swimmers.


Precautionary/preparedness actions...

There is a high risk of rip currents.

Rip currents are powerful channels of water flowing quickly away
from shore... which occur most often at low spots or breaks in The
Sandbar and in the vicinity of structures such as groins...
jetties and piers. Heed the advice of lifeguards and the beach
patrol. Pay attention to flags and posted signs.

Swim near a lifeguard. If caught in a rip current remain calm.
Dont fight the current. Swim in a direction following the
shoreline. If unable to escape... face the shore and call or wave
for help. If tired... float or tread water until out of the rip
current.